Lamberton, Minnesota
Current Conditions -  °F | °C
As of 7:32 PM on Monday 22 Dec 2014 (Local Time) from KTKC Reporting Station
Moderate Rain Moderate Rain  
Wind Chill: 27°   Ceiling: 300
Heat Index: 35°   Visibility: 2.5mi
Dew Point: 34°   Wind: 10mph
Humidity: 97%   Direction: 110°ESE
Pressure: 29.52"   Gusts: NA
Location:  44.23°N, 95.26°W
Report Text: KTKC 230132Z AUTO 11009KT 2 1/2SM RA OVC003 02/01 A2952 RMK AO2 T00150011
Loading
Personal Weather Stations






























Interactive Weather Map New forecast layout! Learn more

10-Day Weather Forecast

Advertisements
Track Severe Weather on mobile